Time;durP1;ratioP1;P1;durP2;ratioP2;P2;SDS_P1;SDS_P2;PMS_P1;PMS_P2;Temp;Humidity;BMP_temperature;BMP_pressure;BME280_temperature;BME280_humidity;BME280_pressure;Samples;Min_cycle;Max_cycle;Signal;HPM_P1;HPM_P2
2022/06/14 00:00:55;;;;;;;4.20;3.10;;;;;;;22.23;40.20;99979.64;117282;1180;23643;-50
2022/06/14 00:03:38;;;;;;;4.00;3.00;;;;;;;22.18;40.41;99983.35;117321;1184;21846;-51
2022/06/14 00:06:10;;;;;;;5.00;3.10;;;;;;;22.17;40.45;99979.55;117277;1183;23613;-56
2022/06/14 00:08:37;;;;;;;3.80;3.10;;;;;;;22.06;40.52;99977.23;117415;1182;24149;-50
2022/06/14 00:11:26;;;;;;;4.60;3.40;;;;;;;21.92;40.59;99974.17;117325;1182;22976;-50
2022/06/14 00:13:54;;;;;;;3.90;3.40;;;;;;;21.85;40.73;99975.17;117321;1182;23567;-51
2022/06/14 00:16:22;;;;;;;5.70;3.40;;;;;;;21.84;40.86;99975.23;117328;1185;21853;-50
2022/06/14 00:18:49;;;;;;;6.30;3.10;;;;;;;21.83;40.88;99975.52;117345;1185;21951;-56
2022/06/14 00:21:16;;;;;;;6.10;3.50;;;;;;;21.83;41.03;99973.36;117417;1182;22983;-56
2022/06/14 00:23:43;;;;;;;4.10;3.50;;;;;;;21.85;41.20;99975.52;117380;1186;21855;-51
2022/06/14 00:26:11;;;;;;;4.30;3.10;;;;;;;21.88;41.20;99974.31;117395;1182;22914;-50
2022/06/14 00:28:40;;;;;;;4.90;3.10;;;;;;;21.84;41.16;99976.32;117383;1182;23348;-50
2022/06/14 00:31:18;;;;;;;6.10;3.50;;;;;;;21.73;41.12;99974.92;117349;1186;21855;-56
2022/06/14 00:33:45;;;;;;;3.90;3.10;;;;;;;21.62;41.17;99972.17;117386;1185;21863;-56
2022/06/14 00:36:30;;;;;;;3.90;3.20;;;;;;;21.56;41.35;99967.91;117334;1182;23542;-56
2022/06/14 00:38:59;;;;;;;5.50;3.50;;;;;;;21.48;41.46;99963.77;117315;1182;22989;-55
2022/06/14 00:41:32;;;;;;;4.50;3.60;;;;;;;21.42;41.61;99964.52;117342;1182;23437;-50
2022/06/14 00:43:59;;;;;;;4.00;3.30;;;;;;;21.37;41.58;99962.00;117416;1186;21855;-50
2022/06/14 00:46:59;;;;;;;5.70;3.30;;;;;;;21.33;41.69;99961.21;117318;1185;22902;-57
2022/06/14 00:49:30;;;;;;;3.80;3.30;;;;;;;21.29;41.76;99960.02;117312;1186;23741;-57
2022/06/14 00:52:02;;;;;;;4.40;3.30;;;;;;;21.29;41.83;99959.45;117385;1182;23433;-50
2022/06/14 00:54:36;;;;;;;5.00;3.40;;;;;;;21.31;41.86;99962.55;117436;1185;21852;-53
2022/06/14 00:57:18;;;;;;;5.60;3.10;;;;;;;21.31;41.89;99963.83;117370;1181;22957;-56
2022/06/14 01:00:04;;;;;;;4.40;3.30;;;;;;;21.33;41.92;99965.83;117372;1185;22639;-51
2022/06/14 01:02:35;;;;;;;4.80;3.30;;;;;;;21.32;42.02;99963.21;117441;1183;23541;-50
2022/06/14 01:05:04;;;;;;;;;;;;;;;21.29;42.01;99965.77;117388;1185;22912;-50
2022/06/14 01:07:52;;;;;;;3.50;3.10;;;;;;;21.23;42.12;99968.74;117389;1182;24156;-56
2022/06/14 01:10:30;;;;;;;4.60;3.30;;;;;;;21.18;42.22;99969.98;117475;1182;22915;-50
2022/06/14 01:13:00;;;;;;;5.10;3.50;;;;;;;21.13;42.31;99973.70;117402;1182;23544;-56
2022/06/14 01:15:29;;;;;;;7.00;4.00;;;;;;;21.10;42.40;99972.41;117394;1185;22899;-50
2022/06/14 01:18:05;;;;;;;5.60;3.60;;;;;;;21.11;42.41;99970.61;117351;1182;23545;-50
2022/06/14 01:20:33;;;;;;;6.80;3.70;;;;;;;20.98;42.46;99969.79;117378;1182;22937;-56
2022/06/14 01:23:01;;;;;;;11.40;4.50;;;;;;;20.82;42.53;99974.14;117230;1188;22989;-56
2022/06/14 01:25:29;;;;;;;7.20;4.00;;;;;;;20.77;42.65;99973.01;117308;1186;21837;-56
2022/06/14 01:27:56;;;;;;;5.20;3.50;;;;;;;20.77;42.83;99972.10;117388;1184;21953;-50
2022/06/14 01:30:26;;;;;;;4.30;3.30;;;;;;;20.76;42.93;99971.62;117165;1182;22908;-50
2022/06/14 01:33:05;;;;;;;5.90;3.80;;;;;;;20.75;42.90;99969.04;117388;1180;23014;-56
2022/06/14 01:35:35;;;;;;;4.30;3.50;;;;;;;20.74;42.97;99966.92;117354;1182;22918;-55
2022/06/14 01:38:06;;;;;;;4.50;3.70;;;;;;;20.77;43.07;99968.58;117418;1179;23456;-55
2022/06/14 01:40:51;;;;;;;4.70;3.50;;;;;;;20.77;43.08;99968.73;117354;1185;21844;-50
2022/06/14 01:43:18;;;;;;;3.90;3.30;;;;;;;20.76;43.04;99971.98;117277;1185;22671;-50
2022/06/14 01:46:07;;;;;;;4.40;3.60;;;;;;;20.74;43.05;99971.75;117360;1186;22897;-50
2022/06/14 01:48:53;;;;;;;4.60;3.40;;;;;;;20.78;43.25;99973.13;117348;1185;22962;-56
2022/06/14 01:54:17;;;;;;;5.50;3.50;;;;;;;20.82;43.62;99970.80;117156;1185;24195;-50
2022/06/14 01:56:54;;;;;;;4.10;3.40;;;;;;;20.83;43.65;99967.48;117314;1184;21826;-50
2022/06/14 02:00:01;;;;;;;4.60;3.60;;;;;;;20.86;43.65;99963.23;117107;1185;24203;-57
2022/06/14 02:02:31;;;;;;;4.20;3.60;;;;;;;20.92;43.65;99964.30;117414;1182;23023;-51
2022/06/14 02:05:18;;;;;;;4.00;3.40;;;;;;;20.95;43.67;99967.30;117353;1187;23619;-50
2022/06/14 02:07:51;;;;;;;4.70;3.60;;;;;;;20.99;43.69;99966.52;117349;1184;22935;-56
2022/06/14 02:10:42;;;;;;;4.20;3.60;;;;;;;21.06;43.68;99973.04;117308;1182;22720;-50
2022/06/14 02:13:20;;;;;;;4.80;3.70;;;;;;;21.12;43.73;99975.71;117347;1185;22982;-56
2022/06/14 02:15:49;;;;;;;5.40;3.70;;;;;;;21.14;43.71;99975.06;117353;1183;23614;-57
2022/06/14 02:18:20;;;;;;;6.50;3.50;;;;;;;21.23;43.64;99975.58;117382;1182;22157;-56
2022/06/14 02:20:55;;;;;;;8.10;3.50;;;;;;;21.31;43.61;99971.70;117438;1183;23504;-50
2022/06/14 02:23:22;;;;;;;6.50;3.20;;;;;;;21.39;43.55;99972.95;117388;1185;22906;-56
2022/06/14 02:26:04;;;;;;;8.80;3.50;;;;;;;21.47;43.48;99973.52;117378;1185;22895;-56
2022/06/14 02:28:33;;;;;;;5.10;3.10;;;;;;;21.53;43.55;99971.29;117400;1182;23031;-50
2022/06/14 02:31:06;;;;;;;9.50;3.60;;;;;;;21.58;43.56;99972.62;117652;1182;21851;-50
2022/06/14 02:33:39;;;;;;;7.00;3.40;;;;;;;21.61;43.43;99973.55;117428;1182;24155;-50
2022/06/14 02:36:14;;;;;;;7.10;3.70;;;;;;;21.62;43.53;99975.24;117352;1185;22966;-56
2022/06/14 02:39:05;;;;;;;7.20;3.90;;;;;;;21.64;43.44;99976.75;117394;1188;22144;-50
2022/06/14 02:41:39;;;;;;;4.60;3.30;;;;;;;21.66;43.47;99976.61;117439;1183;23639;-56
2022/06/14 02:44:16;;;;;;;5.60;3.20;;;;;;;21.68;43.50;99976.66;117377;1183;23423;-50
2022/06/14 02:46:51;;;;;;;11.90;4.20;;;;;;;21.70;43.48;99977.04;117448;1182;21845;-56
2022/06/14 02:49:33;;;;;;;6.00;3.10;;;;;;;21.73;43.59;99978.65;117475;1183;23542;-56
2022/06/14 02:52:05;;;;;;;8.30;3.60;;;;;;;21.74;43.78;99978.04;117400;1186;22978;-50
2022/06/14 02:54:40;;;;;;;5.70;3.40;;;;;;;21.75;43.63;99977.66;117414;1185;22320;-56
2022/06/14 02:57:36;;;;;;;5.80;3.40;;;;;;;21.77;43.64;99978.38;117378;1186;21846;-56
2022/06/14 03:00:09;;;;;;;4.90;3.80;;;;;;;21.80;43.66;99980.17;117375;1182;23557;-50
2022/06/14 03:02:45;;;;;;;9.60;4.40;;;;;;;21.82;43.71;99980.17;117396;1182;21878;-50
2022/06/14 03:05:29;;;;;;;5.40;3.30;;;;;;;21.88;43.90;99979.23;117409;1182;23438;-50
2022/06/14 03:08:00;;;;;;;7.80;3.60;;;;;;;21.95;43.95;99980.59;117336;1182;22934;-50
2022/06/14 03:10:40;;;;;;;11.60;3.70;;;;;;;22.04;44.03;99982.30;117400;1185;22915;-50
2022/06/14 03:13:32;;;;;;;9.50;3.60;;;;;;;22.15;44.16;99983.92;117380;1183;21879;-56
2022/06/14 03:16:27;;;;;;;8.10;3.70;;;;;;;22.26;44.16;99984.46;117451;1186;24592;-55
2022/06/14 03:19:16;;;;;;;5.70;3.50;;;;;;;22.35;44.10;99983.28;117420;1184;21922;-50
2022/06/14 03:21:55;;;;;;;7.40;3.80;;;;;;;22.42;44.03;99979.60;117331;1182;22628;-56
2022/06/14 03:24:51;;;;;;;9.50;4.00;;;;;;;22.49;43.98;99980.05;117452;1182;22937;-50
2022/06/14 03:27:35;;;;;;;8.50;3.70;;;;;;;22.57;43.96;99974.70;117537;1181;23702;-56
2022/06/14 03:30:07;;;;;;;6.70;3.80;;;;;;;22.66;44.00;99977.34;117398;1185;22883;-50
2022/06/14 03:32:45;;;;;;;11.20;4.10;;;;;;;22.74;44.23;99977.98;117422;1183;23537;-56
2022/06/14 03:35:18;;;;;;;11.30;4.10;;;;;;;22.86;44.09;99979.14;117411;1185;21850;-50
2022/06/14 03:37:44;;;;;;;8.80;4.30;;;;;;;23.00;44.08;99976.56;117372;1182;21849;-55
2022/06/14 03:40:13;;;;;;;13.10;4.80;;;;;;;23.12;44.13;99981.83;117305;1174;23615;-56
2022/06/14 03:42:41;;;;;;;15.00;4.90;;;;;;;23.25;44.18;99981.59;117260;1182;23554;-56
2022/06/14 03:45:09;;;;;;;8.00;4.30;;;;;;;23.39;44.18;99985.11;117454;1184;22911;-50
2022/06/14 03:47:36;;;;;;;11.40;4.40;;;;;;;23.51;44.40;99983.65;117405;1184;23481;-56
2022/06/14 03:50:10;;;;;;;5.20;3.80;;;;;;;23.62;44.23;99984.72;117501;1185;21845;-57
2022/06/14 03:52:46;;;;;;;5.60;3.70;;;;;;;23.71;44.03;99988.13;117425;1186;21856;-51
2022/06/14 03:55:35;;;;;;;6.60;3.70;;;;;;;23.81;43.94;99986.88;117384;1183;22940;-57
2022/06/14 03:58:06;;;;;;;8.20;3.80;;;;;;;23.94;43.91;99992.17;117340;1182;23439;-56
2022/06/14 04:00:54;;;;;;;6.20;3.90;;;;;;;24.10;44.03;99993.54;117467;1182;23271;-56
2022/06/14 04:03:40;;;;;;;3.70;3.20;;;;;;;24.24;44.02;99992.67;117410;1182;23535;-52
2022/06/14 04:06:29;;;;;;;4.00;2.90;;;;;;;24.40;43.87;99993.27;117480;1183;21878;-57
2022/06/14 04:09:18;;;;;;;6.70;3.50;;;;;;;24.54;43.88;99989.84;117428;1185;22903;-51
2022/06/14 04:11:55;;;;;;;8.40;3.20;;;;;;;24.71;43.92;99989.98;117389;1185;22912;-57
2022/06/14 04:15:01;;;;;;;5.20;3.20;;;;;;;24.88;43.74;99987.11;117552;1182;22901;-56
2022/06/14 04:17:59;;;;;;;3.80;2.90;;;;;;;25.07;43.46;99984.14;117074;1187;21852;-51
2022/06/14 04:20:32;;;;;;;5.10;3.70;;;;;;;25.29;43.39;99984.40;117232;1185;21891;-51
2022/06/14 04:23:30;;;;;;;3.90;2.70;;;;;;;25.50;43.39;99985.41;117404;1182;22268;-57
2022/06/14 04:26:19;;;;;;;5.30;3.20;;;;;;;25.77;43.43;99983.23;117312;1182;22900;-52
2022/06/14 04:28:55;;;;;;;4.00;3.00;;;;;;;26.05;43.37;99981.13;117370;1185;21893;-57
2022/06/14 04:31:34;;;;;;;6.80;3.20;;;;;;;26.31;43.05;99981.59;117354;1182;22863;-57
2022/06/14 04:34:05;;;;;;;10.30;3.60;;;;;;;26.57;42.73;99976.40;117284;1184;21930;-52
2022/06/14 04:36:55;;;;;;;6.90;3.00;;;;;;;26.80;42.71;99980.71;117386;1184;22002;-56
2022/06/14 04:39:26;;;;;;;4.10;3.00;;;;;;;27.06;42.48;99982.11;117333;1186;22898;-56
2022/06/14 04:42:08;;;;;;;7.00;2.30;;;;;;;27.32;42.34;99980.02;117453;1185;22919;-52
2022/06/14 04:44:42;;;;;;;9.30;3.30;;;;;;;27.54;42.05;99983.63;117356;1184;21899;-52
2022/06/14 04:47:16;;;;;;;7.60;2.90;;;;;;;27.72;41.84;99986.16;117366;1182;21850;-56
2022/06/14 04:49:52;;;;;;;8.50;3.70;;;;;;;27.90;41.93;99987.21;117519;1182;24159;-55
2022/06/14 04:52:33;;;;;;;9.90;3.50;;;;;;;28.11;41.89;99988.78;117349;1184;21845;-56
2022/06/14 04:55:12;;;;;;;;;;;;;;;28.30;41.85;99984.70;117329;1186;21915;-56
2022/06/14 04:57:45;;;;;;;7.90;3.70;;;;;;;28.49;41.59;99986.53;117356;1182;23609;-57
2022/06/14 05:00:13;;;;;;;5.10;2.80;;;;;;;28.72;41.72;99983.48;117376;1184;23442;-53
2022/06/14 05:02:53;;;;;;;4.70;2.70;;;;;;;28.88;41.49;99983.80;117383;1185;22915;-52
2022/06/14 05:05:39;;;;;;;3.90;2.80;;;;;;;29.05;41.12;99985.92;117414;1184;22533;-52
2022/06/14 05:08:10;;;;;;;3.10;2.60;;;;;;;29.29;40.83;99990.56;117343;1186;21849;-56
2022/06/14 05:10:44;;;;;;;7.70;3.20;;;;;;;29.43;40.53;99993.67;117359;1183;22649;-55
2022/06/14 05:13:39;;;;;;;4.40;2.60;;;;;;;29.54;40.27;99994.04;117353;1185;22150;-56
2022/06/14 05:16:09;;;;;;;7.70;3.20;;;;;;;29.67;39.75;100002.95;117336;1186;23436;-57
2022/06/14 05:19:12;;;;;;;3.80;2.90;;;;;;;29.71;39.27;100007.04;117232;1182;21841;-56
2022/06/14 05:22:03;;;;;;;3.90;3.10;;;;;;;29.67;39.16;100014.27;117442;1185;23554;-56
2022/06/14 05:24:31;;;;;;;7.60;3.60;;;;;;;29.61;39.32;100015.48;117426;1184;22962;-56
2022/06/14 05:27:03;;;;;;;4.80;3.40;;;;;;;29.61;39.41;100017.38;117393;1185;22027;-54
2022/06/14 05:29:55;;;;;;;5.80;3.50;;;;;;;29.68;39.51;100018.56;117395;1185;23541;-56
2022/06/14 05:32:52;;;;;;;5.40;3.70;;;;;;;29.81;39.29;100019.79;117404;1184;23086;-57
2022/06/14 05:35:42;;;;;;;6.10;3.90;;;;;;;29.91;38.83;100018.77;117344;1182;23503;-56
2022/06/14 05:38:14;;;;;;;18.20;4.70;;;;;;;30.08;38.62;100017.13;117436;1182;22915;-54
2022/06/14 05:40:46;;;;;;;7.00;4.00;;;;;;;30.24;38.76;100019.86;117604;1185;21847;-54
2022/06/14 05:43:16;;;;;;;5.80;4.00;;;;;;;30.43;38.52;100025.02;117406;1184;21851;-56
2022/06/14 05:45:46;;;;;;;4.60;3.50;;;;;;;30.47;38.17;100032.92;117485;1185;22799;-54
2022/06/14 05:48:23;;;;;;;8.70;4.20;;;;;;;30.40;37.71;100035.88;117424;1186;21840;-54
2022/06/14 05:50:52;;;;;;;11.60;4.10;;;;;;;30.33;37.58;100041.65;117419;1185;23541;-57
2022/06/14 05:53:33;;;;;;;5.90;4.00;;;;;;;30.21;37.72;100041.95;117370;1185;23615;-54
2022/06/14 05:56:16;;;;;;;6.70;4.50;;;;;;;30.13;37.77;100041.06;117434;1186;23541;-54
2022/06/14 05:59:06;;;;;;;8.70;4.50;;;;;;;30.19;37.98;100043.16;117484;1182;24156;-57
2022/06/14 06:01:40;;;;;;;5.40;3.90;;;;;;;30.31;37.85;100046.38;117371;1180;21906;-58
2022/06/14 06:04:16;;;;;;;7.80;4.60;;;;;;;30.36;37.58;100045.48;117409;1183;22321;-54
2022/06/14 06:06:45;;;;;;;11.80;4.60;;;;;;;30.45;37.73;100046.50;117366;1184;22709;-58
2022/06/14 06:09:17;;;;;;;13.90;4.60;;;;;;;30.58;37.55;100048.20;117526;1186;22934;-54
2022/06/14 06:12:01;;;;;;;4.80;4.00;;;;;;;30.61;37.40;100048.94;117341;1184;21900;-57
2022/06/14 06:14:34;;;;;;;7.80;4.30;;;;;;;30.65;37.56;100055.73;117450;1186;23563;-57
2022/06/14 06:17:10;;;;;;;5.80;3.60;;;;;;;30.70;37.44;100057.63;117401;1185;22847;-54
2022/06/14 06:20:25;;;;;;;8.60;3.70;;;;;;;30.72;37.29;100056.34;117417;1183;24159;-54
2022/06/14 06:23:18;;;;;;;5.80;3.50;;;;;;;30.88;37.22;100055.41;116901;1189;21866;-54
2022/06/14 06:25:47;;;;;;;5.20;4.20;;;;;;;31.03;37.24;100058.84;117446;1182;23164;-54
2022/06/14 06:28:18;;;;;;;4.70;4.00;;;;;;;31.04;37.03;100060.14;117434;1182;22905;-56
2022/06/14 06:30:51;;;;;;;7.20;4.10;;;;;;;30.93;37.07;100062.73;117353;1180;22902;-53
2022/06/14 06:33:18;;;;;;;8.80;4.00;;;;;;;30.79;36.96;100067.74;117190;1184;21848;-56
2022/06/14 06:36:16;;;;;;;8.70;3.80;;;;;;;30.68;36.97;100067.77;117335;1185;21891;-54
2022/06/14 06:39:18;;;;;;;4.90;4.00;;;;;;;30.69;37.40;100069.86;117349;1186;24146;-54
2022/06/14 06:41:54;;;;;;;8.10;3.70;;;;;;;30.85;37.58;100071.63;117391;1185;23430;-56
2022/06/14 06:44:51;;;;;;;6.20;4.10;;;;;;;31.00;37.48;100071.55;117357;1186;21840;-55
2022/06/14 06:47:29;;;;;;;5.20;3.90;;;;;;;31.14;37.39;100071.27;117318;1186;21850;-57
2022/06/14 06:50:20;;;;;;;6.40;4.00;;;;;;;31.24;37.36;100073.63;117392;1182;21851;-57
2022/06/14 06:52:53;;;;;;;7.20;3.80;;;;;;;31.35;37.39;100075.25;117076;1186;23320;-55
2022/06/14 06:55:39;;;;;;;5.90;4.10;;;;;;;31.44;37.27;100076.24;117319;1185;23657;-54
2022/06/14 06:58:11;;;;;;;9.00;3.90;;;;;;;31.35;37.14;100073.76;117423;1185;22695;-56
2022/06/14 07:00:39;;;;;;;10.10;4.50;;;;;;;31.25;37.17;100082.07;117309;1184;23611;-54
2022/06/14 07:03:16;;;;;;;6.10;3.60;;;;;;;31.23;37.16;100084.60;117412;1186;21886;-57
2022/06/14 07:05:47;;;;;;;6.10;4.10;;;;;;;31.27;37.26;100082.92;117331;1184;21839;-55
2022/06/14 07:08:18;;;;;;;6.30;4.30;;;;;;;31.31;37.46;100081.05;117473;1185;21909;-55
2022/06/14 07:10:49;;;;;;;11.70;4.00;;;;;;;31.46;37.45;100076.84;117258;1185;22125;-57
2022/06/14 07:13:20;;;;;;;9.10;3.90;;;;;;;31.64;37.47;100078.38;117308;1185;21866;-57
2022/06/14 07:15:54;;;;;;;10.70;4.20;;;;;;;31.77;37.28;100082.59;117367;1185;21874;-57
2022/06/14 07:18:29;;;;;;;6.10;3.60;;;;;;;31.88;37.16;100084.57;117259;1186;21851;-56
2022/06/14 07:20:58;;;;;;;10.30;4.20;;;;;;;32.07;37.33;100085.54;117397;1185;22914;-54
2022/06/14 07:23:40;;;;;;;6.60;4.60;;;;;;;32.27;37.14;100091.06;117328;1182;22911;-57
2022/06/14 07:26:26;;;;;;;10.00;4.90;;;;;;;32.29;37.14;100088.11;117350;1185;22351;-57
2022/06/14 07:29:16;;;;;;;6.30;4.30;;;;;;;32.40;37.25;100092.22;117432;1184;21845;-57
2022/06/14 07:31:51;;;;;;;5.90;4.60;;;;;;;32.57;37.08;100093.45;117388;1185;21851;-57
2022/06/14 07:34:19;;;;;;;8.20;4.10;;;;;;;32.76;37.04;100096.07;117416;1184;21856;-55
2022/06/14 07:37:15;;;;;;;7.00;4.20;;;;;;;32.86;36.60;100093.68;117321;1185;22915;-58
2022/06/14 07:40:15;;;;;;;8.80;4.00;;;;;;;32.87;36.63;100099.30;117237;1186;21873;-55
2022/06/14 07:42:54;;;;;;;5.00;3.90;;;;;;;32.99;36.79;100106.48;117195;1188;23273;-56
2022/06/14 07:45:44;;;;;;;7.00;4.60;;;;;;;33.16;36.51;100112.13;117353;1185;23003;-56
2022/06/14 07:48:36;;;;;;;8.70;4.50;;;;;;;33.29;36.21;100118.21;117426;1186;21849;-57
2022/06/14 07:51:25;;;;;;;11.20;4.50;;;;;;;33.16;36.18;100117.90;117366;1182;23079;-56
2022/06/14 07:54:08;;;;;;;7.50;4.30;;;;;;;33.03;36.29;100118.56;117392;1182;21855;-57
2022/06/14 07:57:16;;;;;;;5.20;4.20;;;;;;;33.03;36.35;100119.11;117445;1186;21849;-55
2022/06/14 07:59:55;;;;;;;8.10;3.90;;;;;;;33.19;36.37;100122.76;117339;1185;23461;-58
2022/06/14 08:02:33;;;;;;;7.30;4.40;;;;;;;33.40;36.32;100121.30;117340;1182;22616;-56
2022/06/14 08:05:28;;;;;;;9.70;4.50;;;;;;;33.60;36.31;100118.59;117445;1183;22091;-56
2022/06/14 08:07:56;;;;;;;6.90;4.00;;;;;;;33.79;36.14;100119.84;117337;1185;21926;-55
2022/06/14 08:10:38;;;;;;;8.10;3.90;;;;;;;33.91;35.96;100117.39;117369;1188;21859;-56
2022/06/14 08:13:31;;;;;;;15.70;4.70;;;;;;;34.03;35.63;100124.14;117383;1185;21839;-58
2022/06/14 08:15:59;;;;;;;6.30;4.00;;;;;;;34.14;35.04;100132.05;117267;1187;23924;-56
2022/06/14 08:18:38;;;;;;;6.90;4.00;;;;;;;34.03;34.99;100134.17;117073;1188;23504;-58
2022/06/14 08:21:09;;;;;;;5.20;3.60;;;;;;;33.95;35.29;100135.33;117146;1188;22561;-56
2022/06/14 08:23:55;;;;;;;8.00;5.00;;;;;;;34.02;35.06;100135.93;117018;1186;23437;-57
2022/06/14 08:26:24;;;;;;;7.80;3.60;;;;;;;33.95;34.83;100139.27;117180;1188;21886;-55
2022/06/14 08:29:13;;;;;;;10.30;3.80;;;;;;;33.78;34.87;100144.30;117058;1187;21899;-55
2022/06/14 08:31:47;;;;;;;8.00;3.90;;;;;;;33.57;34.67;100147.64;117069;1184;22631;-56
2022/06/14 08:34:36;;;;;;;9.70;4.10;;;;;;;33.36;34.95;100145.64;117116;1187;21862;-55
2022/06/14 08:37:05;;;;;;;7.00;3.60;;;;;;;33.29;35.15;100145.14;116853;1188;22617;-57
2022/06/14 08:39:37;;;;;;;7.60;3.20;;;;;;;33.28;35.07;100148.89;117193;1186;23442;-54
2022/06/14 08:42:18;;;;;;;4.80;3.10;;;;;;;33.34;34.99;100153.27;116979;1182;21907;-56
2022/06/14 08:45:06;;;;;;;8.40;3.60;;;;;;;33.49;34.83;100156.71;117097;1188;21863;-56
2022/06/14 08:48:00;;;;;;;7.70;3.30;;;;;;;33.55;34.91;100152.81;117337;1183;23637;-56
2022/06/14 08:50:34;;;;;;;7.10;3.80;;;;;;;33.60;34.85;100158.14;117426;1186;21943;-54
2022/06/14 08:53:10;;;;;;;8.20;4.30;;;;;;;33.59;34.46;100160.32;117366;1185;21852;-55
2022/06/14 08:56:26;;;;;;;14.10;4.30;;;;;;;33.48;34.55;100163.36;117481;1185;21841;-55
2022/06/14 08:58:57;;;;;;;18.80;4.50;;;;;;;33.46;34.49;100166.30;116935;1186;21870;-54
2022/06/14 09:01:58;;;;;;;8.80;4.30;;;;;;;33.45;34.55;100172.77;116950;1188;21854;-54
2022/06/14 09:04:52;;;;;;;6.60;3.50;;;;;;;33.53;34.38;100178.08;117209;1181;21964;-56
2022/06/14 09:07:19;;;;;;;5.00;3.00;;;;;;;33.55;34.03;100181.30;117403;1184;22886;-55
2022/06/14 09:10:21;;;;;;;5.40;2.70;;;;;;;33.42;33.95;100179.84;117210;1184;21859;-57
2022/06/14 09:13:25;;;;;;;6.30;3.20;;;;;;;33.31;33.99;100183.11;117230;1186;21867;-56
2022/06/14 09:16:15;;;;;;;6.70;2.80;;;;;;;33.22;33.97;100182.26;117274;1182;21841;-56
2022/06/14 09:18:56;;;;;;;7.90;3.10;;;;;;;33.03;34.08;100180.33;117314;1183;22915;-57
2022/06/14 09:21:41;;;;;;;12.00;3.30;;;;;;;33.00;34.39;100184.36;117353;1185;22181;-58
2022/06/14 09:24:15;;;;;;;3.90;2.80;;;;;;;33.12;34.13;100192.23;117281;1185;22915;-57
2022/06/14 09:27:08;;;;;;;7.60;3.10;;;;;;;33.24;33.98;100192.38;117534;1185;23650;-54
2022/06/14 09:30:20;;;;;;;5.70;3.30;;;;;;;33.28;33.81;100188.91;117339;1184;22917;-54
2022/06/14 09:33:15;;;;;;;10.60;3.40;;;;;;;33.37;33.86;100191.66;117304;1183;22091;-54
2022/06/14 09:35:42;;;;;;;12.40;3.20;;;;;;;33.64;34.03;100189.57;117275;1189;23705;-55
2022/06/14 09:38:47;;;;;;;5.70;3.20;;;;;;;33.94;33.96;100191.33;117275;1184;23354;-54
2022/06/14 09:41:49;;;;;;;5.70;3.20;;;;;;;34.22;33.56;100190.08;117280;1186;21859;-58
2022/06/14 09:44:22;;;;;;;5.60;3.10;;;;;;;34.14;33.13;100191.17;117271;1185;22642;-55
2022/06/14 09:47:04;;;;;;;4.00;2.60;;;;;;;33.96;33.13;100195.83;117305;1185;23466;-55
2022/06/14 09:50:00;;;;;;;8.60;3.20;;;;;;;33.81;33.24;100196.92;117274;1185;23332;-55
2022/06/14 09:52:34;;;;;;;6.50;2.90;;;;;;;33.59;33.28;100199.75;117380;1185;21864;-56
2022/06/14 09:55:21;;;;;;;8.50;3.40;;;;;;;33.42;33.22;100201.48;117367;1185;21849;-57
2022/06/14 09:58:03;;;;;;;6.20;3.30;;;;;;;33.19;33.33;100199.27;117272;1185;22914;-55
2022/06/14 10:00:38;;;;;;;5.50;2.90;;;;;;;33.04;33.42;100194.59;117311;1182;24749;-58
2022/06/14 10:03:17;;;;;;;4.20;2.60;;;;;;;32.90;33.49;100194.64;117182;1185;21845;-58
2022/06/14 10:06:06;;;;;;;7.30;2.90;;;;;;;32.75;33.20;100194.81;117076;1186;22980;-57
2022/06/14 10:08:43;;;;;;;7.90;4.00;;;;;;;32.61;33.47;100196.52;117230;1185;21842;-56
2022/06/14 10:12:09;;;;;;;6.00;3.10;;;;;;;32.61;33.95;100193.95;117349;1185;23435;-57
2022/06/14 10:14:58;;;;;;;6.60;3.10;;;;;;;32.72;33.83;100190.38;117005;1182;21855;-58
2022/06/14 10:17:46;;;;;;;4.40;3.10;;;;;;;32.76;33.92;100191.90;117214;1186;21915;-58
2022/06/14 10:20:29;;;;;;;4.70;2.90;;;;;;;32.89;34.06;100193.48;117112;1184;21954;-59
2022/06/14 10:23:21;;;;;;;7.40;2.90;;;;;;;33.19;34.12;100193.67;117295;1186;23641;-56
2022/06/14 10:28:57;;;;;;;5.80;2.90;;;;;;;34.28;33.82;100173.77;117297;1186;24139;-53
2022/06/14 10:31:49;;;;;;;5.20;3.00;;;;;;;34.74;33.24;100174.40;117324;1186;21844;-58
2022/06/14 10:34:35;;;;;;;3.80;2.50;;;;;;;35.16;33.37;100176.48;117407;1182;22823;-54
2022/06/14 10:37:25;;;;;;;4.40;2.50;;;;;;;35.46;32.89;100171.92;117312;1183;22986;-57
2022/06/14 10:40:31;;;;;;;3.50;2.40;;;;;;;35.69;32.89;100176.57;117412;1179;22628;-55
2022/06/14 10:43:20;;;;;;;5.30;2.70;;;;;;;35.97;32.27;100179.26;117314;1185;22916;-55
2022/06/14 10:46:14;;;;;;;10.00;2.40;;;;;;;36.10;31.98;100181.70;117284;1184;21853;-54
2022/06/14 10:49:04;;;;;;;4.90;2.30;;;;;;;35.99;32.07;100184.55;117391;1186;21986;-56
2022/06/14 10:51:32;;;;;;;4.30;2.00;;;;;;;35.90;32.13;100187.73;117395;1186;21878;-55
2022/06/14 10:54:33;;;;;;;2.90;2.30;;;;;;;35.84;31.95;100184.64;117376;1186;22815;-57
2022/06/14 10:57:10;;;;;;;2.90;2.10;;;;;;;35.59;31.84;100187.45;117243;1183;21851;-55
2022/06/14 11:00:05;;;;;;;5.50;2.00;;;;;;;35.47;32.07;100185.08;117345;1185;23635;-54
2022/06/14 11:02:58;;;;;;;6.00;2.50;;;;;;;35.58;31.86;100184.02;117347;1185;22916;-56
2022/06/14 11:06:00;;;;;;;3.20;1.90;;;;;;;35.66;31.91;100182.63;117362;1185;23578;-58
2022/06/14 11:08:54;;;;;;;3.00;2.00;;;;;;;35.87;31.74;100179.88;117304;1183;23698;-58
2022/06/14 11:11:40;;;;;;;3.90;1.90;;;;;;;36.03;31.76;100177.52;117349;1185;22813;-59
2022/06/14 11:14:13;;;;;;;3.40;2.00;;;;;;;36.09;31.43;100179.20;117252;1182;23685;-55
2022/06/14 11:17:10;;;;;;;2.90;1.60;;;;;;;36.10;31.09;100177.38;117291;1184;23439;-56
2022/06/14 11:20:07;;;;;;;2.90;2.30;;;;;;;36.00;30.70;100176.09;117427;1186;22902;-56
2022/06/14 11:22:40;;;;;;;4.20;2.10;;;;;;;35.89;30.73;100174.09;117283;1185;21842;-57
2022/06/14 11:25:41;;;;;;;3.40;2.00;;;;;;;35.94;30.76;100177.88;117356;1186;22719;-58
2022/06/14 11:28:13;;;;;;;3.30;1.60;;;;;;;35.88;30.56;100173.74;117358;1183;22905;-58
2022/06/14 11:31:28;;;;;;;6.20;1.60;;;;;;;35.83;30.75;100170.30;117348;1185;21891;-57
2022/06/14 11:34:10;;;;;;;4.50;1.90;;;;;;;35.99;30.79;100170.36;116941;1183;21892;-57
2022/06/14 11:37:30;;;;;;;5.40;1.70;;;;;;;36.13;30.77;100166.24;117307;1185;23634;-57
2022/06/14 11:40:18;;;;;;;4.90;2.10;;;;;;;36.14;30.18;100165.00;117189;1185;21842;-57
2022/06/14 11:43:13;;;;;;;3.20;1.90;;;;;;;36.01;30.21;100168.66;117368;1185;21862;-57
2022/06/14 11:46:14;;;;;;;6.70;1.80;;;;;;;36.03;30.40;100163.47;117367;1180;22912;-57
2022/06/14 11:48:53;;;;;;;3.20;1.40;;;;;;;36.14;30.39;100156.31;117463;1185;23442;-57
2022/06/14 11:51:29;;;;;;;5.40;1.50;;;;;;;36.32;30.65;100155.47;117324;1182;22157;-57
2022/06/14 11:54:15;;;;;;;3.60;1.60;;;;;;;36.53;30.10;100152.92;117450;1185;23618;-58
2022/06/14 11:56:42;;;;;;;7.60;1.90;;;;;;;36.57;29.75;100156.04;117415;1186;21924;-57
2022/06/14 12:00:00;;;;;;;2.40;1.60;;;;;;;36.53;29.97;100148.92;117389;1182;23000;-58
2022/06/14 12:02:52;;;;;;;2.40;1.40;;;;;;;36.53;29.56;100148.36;117053;1189;21868;-58
2022/06/14 12:05:32;;;;;;;2.50;1.50;;;;;;;36.61;29.41;100155.10;117375;1186;22919;-57
2022/06/14 12:08:06;;;;;;;3.10;1.30;;;;;;;36.73;29.16;100149.31;117373;1182;21899;-58
2022/06/14 12:10:55;;;;;;;3.00;1.20;;;;;;;36.72;28.81;100155.51;117370;1186;24174;-55
2022/06/14 12:13:53;;;;;;;5.00;1.70;;;;;;;36.63;28.79;100154.54;117302;1183;23416;-57
2022/06/14 12:16:39;;;;;;;2.30;1.40;;;;;;;36.62;28.88;100158.15;117342;1182;22160;-55
2022/06/14 12:19:09;;;;;;;3.90;1.30;;;;;;;36.68;28.92;100155.80;117363;1186;23461;-57
2022/06/14 12:21:39;;;;;;;2.20;1.20;;;;;;;36.64;28.68;100156.11;117350;1185;21882;-58
2022/06/14 12:24:09;;;;;;;4.50;1.80;;;;;;;36.66;28.43;100154.52;117331;1185;21844;-59
2022/06/14 12:26:42;;;;;;;;;;;;;;;36.66;28.36;100154.39;117442;1185;22368;-56
2022/06/14 12:29:23;;;;;;;2.50;1.30;;;;;;;36.68;28.50;100150.96;117458;1183;22905;-58